Time;durP1;ratioP1;P1;durP2;ratioP2;P2;SDS_P1;SDS_P2;PMS_P1;PMS_P2;Temp;Humidity;BMP_temperature;BMP_pressure;BME280_temperature;BME280_humidity;BME280_pressure;Samples;Min_cycle;Max_cycle;Signal;HPM_P1;HPM_P2
2022/11/29 00:00:46;;;;;;;387.57;362.40;;;7.50;38.60;;;;;;5075624;28;20187;-72
2022/11/29 00:03:12;;;;;;;369.77;347.27;;;7.50;37.40;;;;;;5075022;28;20179;-71
2022/11/29 00:05:38;;;;;;;531.53;492.27;;;7.50;38.00;;;;;;5057147;28;20921;-71
2022/11/29 00:08:04;;;;;;;539.93;505.63;;;7.50;37.90;;;;;;5075044;28;20467;-71
2022/11/29 00:10:29;;;;;;;305.43;283.13;;;7.50;39.00;;;;;;5074844;28;20222;-70
2022/11/29 00:12:55;;;;;;;575.67;533.47;;;7.60;38.40;;;;;;5074458;28;20686;-72
2022/11/29 00:15:20;;;;;;;341.77;315.33;;;7.60;38.60;;;;;;5074743;28;20625;-70
2022/11/29 00:17:47;;;;;;;610.90;565.13;;;7.50;37.70;;;;;;5074717;28;20190;-70
2022/11/29 00:20:12;;;;;;;458.67;426.03;;;7.50;39.10;;;;;;5074526;28;20221;-70
2022/11/29 00:22:38;;;;;;;644.57;596.83;;;7.70;38.60;;;;;;5074231;28;20440;-71
2022/11/29 00:25:05;;;;;;;301.17;281.33;;;7.60;37.90;;;;;;5074468;28;20542;-72
2022/11/29 00:27:31;;;;;;;319.20;298.30;;;7.60;39.30;;;;;;5074432;28;20182;-70
2022/11/29 00:29:57;;;;;;;497.77;468.00;;;7.60;37.70;;;;;;5073391;28;20787;-69
2022/11/29 00:32:23;;;;;;;523.93;482.83;;;7.60;38.80;;;;;;5074005;28;20458;-69
2022/11/29 00:34:48;;;;;;;425.20;395.03;;;7.60;39.00;;;;;;5074266;28;20661;-70
2022/11/29 00:37:14;;;;;;;516.90;479.27;;;7.70;38.10;;;;;;5074288;28;20187;-71
2022/11/29 00:39:40;;;;;;;605.53;554.73;;;7.70;38.00;;;;;;5074398;28;20181;-71
2022/11/29 00:42:06;;;;;;;184.17;171.10;;;7.70;37.40;;;;;;5073933;28;20560;-71
2022/11/29 00:44:31;;;;;;;569.27;528.53;;;7.80;37.70;;;;;;5074207;28;20188;-70
2022/11/29 00:46:57;;;;;;;287.90;268.70;;;7.60;37.00;;;;;;5074156;28;20783;-70
2022/11/29 00:49:23;;;;;;;495.83;465.60;;;7.70;37.80;;;;;;5074139;28;20180;-70
2022/11/29 00:51:48;;;;;;;499.80;466.90;;;7.60;37.70;;;;;;5073721;28;20274;-72
2022/11/29 00:54:14;;;;;;;471.40;440.37;;;7.60;37.90;;;;;;5074103;28;20181;-70
2022/11/29 00:56:40;;;;;;;475.80;440.90;;;7.60;38.40;;;;;;5074013;28;20229;-70
2022/11/29 00:59:05;;;;;;;279.27;261.70;;;7.50;38.80;;;;;;5074066;28;20503;-70
2022/11/29 01:01:31;;;;;;;493.63;464.13;;;7.60;40.00;;;;;;5073583;28;20216;-71
2022/11/29 01:03:56;;;;;;;571.63;535.20;;;7.70;38.30;;;;;;5073734;28;20185;-72
2022/11/29 01:06:22;;;;;;;529.33;496.50;;;7.80;37.60;;;;;;5073893;28;20716;-70
2022/11/29 01:08:48;;;;;;;570.87;533.47;;;7.80;36.30;;;;;;5073747;28;20183;-69
2022/11/29 01:11:25;;;;;;;411.23;380.60;;;7.80;37.10;;;;;;5073561;28;20287;-71
2022/11/29 01:13:54;;;;;;;323.73;303.13;;;7.60;36.60;;;;;;5073683;28;20533;-72
2022/11/29 01:16:19;;;;;;;373.87;347.53;;;7.70;38.00;;;;;;5073463;28;20418;-70
2022/11/29 01:18:45;;;;;;;551.97;513.73;;;7.70;37.20;;;;;;5073590;28;20771;-70
2022/11/29 01:21:14;;;;;;;289.07;269.57;;;7.70;37.40;;;;;;5073372;28;20209;-72
2022/11/29 01:23:40;;;;;;;416.43;393.77;;;7.80;36.60;;;;;;5073205;28;20180;-71
2022/11/29 01:26:09;;;;;;;467.73;434.23;;;7.80;35.80;;;;;;5055266;28;20426;-71
2022/11/29 01:28:35;;;;;;;597.60;556.60;;;7.80;36.50;;;;;;5073367;28;20450;-70
2022/11/29 01:31:10;;;;;;;572.03;534.20;;;7.80;36.20;;;;;;5072963;28;20510;-72
2022/11/29 01:33:36;;;;;;;733.57;677.17;;;7.80;36.30;;;;;;5073116;28;20413;-70
2022/11/29 01:36:04;;;;;;;514.73;482.60;;;7.80;35.70;;;;;;5055238;28;20982;-70
2022/11/29 01:38:29;;;;;;;350.60;328.47;;;7.80;36.30;;;;;;5073516;28;20465;-71
2022/11/29 01:41:01;;;;;;;465.53;434.43;;;7.90;35.80;;;;;;5072911;28;20925;-70
2022/11/29 01:43:27;;;;;;;498.43;467.20;;;7.70;35.40;;;;;;5054953;28;20189;-70
2022/11/29 01:45:53;;;;;;;386.30;363.07;;;7.80;36.10;;;;;;5072963;28;20823;-70
2022/11/29 01:48:23;;;;;;;528.10;494.00;;;7.80;35.30;;;;;;5072933;28;20409;-70
2022/11/29 01:50:49;;;;;;;512.40;479.90;;;7.80;36.10;;;;;;5072808;28;20950;-70
2022/11/29 01:53:15;;;;;;;573.97;535.87;;;7.80;35.50;;;;;;5072939;28;20420;-70
2022/11/29 01:55:46;;;;;;;544.83;507.57;;;7.90;35.40;;;;;;5072799;28;20403;-70
2022/11/29 01:58:13;;;;;;;546.33;510.13;;;7.90;35.40;;;;;;5054791;28;20460;-73
2022/11/29 02:00:39;;;;;;;532.77;498.40;;;7.90;35.40;;;;;;5072601;28;20441;-70
2022/11/29 02:03:13;;;;;;;536.90;502.63;;;7.90;34.80;;;;;;5096208;22;20487;-70
2022/11/29 02:05:45;;;;;;;292.57;272.17;;;7.80;35.30;;;;;;5072846;28;20169;-69
2022/11/29 02:08:13;;;;;;;319.70;297.67;;;7.80;35.30;;;;;;5072678;28;20400;-69
2022/11/29 02:10:59;;;;;;;643.63;594.33;;;7.70;35.20;;;;;;5072517;28;20416;-69
2022/11/29 02:13:50;;;;;;;526.93;488.60;;;7.80;35.20;;;;;;5052328;28;20510;-70
2022/11/29 02:16:29;;;;;;;670.87;619.43;;;7.60;35.60;;;;;;5052621;28;20403;-69
2022/11/29 02:19:16;;;;;;;269.83;253.37;;;7.70;36.20;;;;;;5034543;28;20507;-72
2022/11/29 02:21:52;;;;;;;552.73;516.73;;;7.70;35.50;;;;;;5052232;28;20427;-69
2022/11/29 02:24:30;;;;;;;526.70;489.90;;;7.80;35.30;;;;;;5052400;28;20404;-69
2022/11/29 02:27:08;;;;;;;517.63;482.70;;;7.70;35.80;;;;;;5052396;28;20442;-70
2022/11/29 02:30:06;;;;;;;535.40;499.87;;;7.70;36.20;;;;;;5052277;28;20408;-70
2022/11/29 02:32:50;;;;;;;462.97;431.13;;;7.80;35.70;;;;;;5046303;28;20472;-70
2022/11/29 02:35:52;;;;;;;700.70;648.23;;;7.80;35.30;;;;;;5052195;28;20419;-70
2022/11/29 02:38:45;;;;;;;718.93;664.43;;;7.80;35.30;;;;;;5052175;28;20738;-71
2022/11/29 02:41:21;;;;;;;534.20;497.90;;;7.80;35.30;;;;;;5052086;28;20402;-71
2022/11/29 02:44:17;;;;;;;475.30;445.40;;;7.70;35.20;;;;;;5034008;28;20450;-71
2022/11/29 02:46:57;;;;;;;492.40;462.63;;;7.70;35.20;;;;;;5052064;28;20416;-70
2022/11/29 02:49:51;;;;;;;555.13;515.37;;;7.80;35.30;;;;;;5052066;28;20414;-70
2022/11/29 02:52:43;;;;;;;542.60;506.07;;;7.80;35.00;;;;;;5051141;28;20464;-70
2022/11/29 02:55:19;;;;;;;463.63;436.83;;;7.80;34.70;;;;;;5051870;28;20412;-70
2022/11/29 02:57:57;;;;;;;494.13;462.77;;;7.90;34.60;;;;;;5052017;28;20403;-70
2022/11/29 03:00:23;;;;;;;205.40;191.20;;;7.80;34.20;;;;;;5051987;28;20916;-69
2022/11/29 03:02:55;;;;;;;549.50;512.03;;;7.80;34.20;;;;;;5051325;28;20452;-70
2022/11/29 03:05:24;;;;;;;611.23;568.80;;;7.80;33.60;;;;;;5051720;28;20420;-70
2022/11/29 03:07:49;;;;;;;469.53;440.83;;;7.80;33.80;;;;;;5051769;28;20547;-70
2022/11/29 03:10:33;;;;;;;509.33;475.77;;;7.80;33.80;;;;;;5033860;28;20955;-71
2022/11/29 03:13:04;;;;;;;505.83;472.77;;;7.80;33.60;;;;;;5033475;28;20746;-71
2022/11/29 03:15:33;;;;;;;445.73;416.70;;;7.70;34.10;;;;;;5033920;28;20850;-71
2022/11/29 03:18:40;;;;;;;437.63;406.40;;;7.70;34.30;;;;;;5051942;28;20439;-71
2022/11/29 03:21:23;;;;;;;521.93;489.43;;;7.80;33.80;;;;;;5051668;28;20510;-70
2022/11/29 03:23:53;;;;;;;517.73;485.17;;;7.80;33.10;;;;;;5051239;28;20440;-71
2022/11/29 03:26:39;;;;;;;461.40;432.10;;;7.80;33.20;;;;;;5051833;28;20446;-71
2022/11/29 03:29:12;;;;;;;550.80;512.83;;;7.80;33.10;;;;;;5033727;28;20430;-71
2022/11/29 03:31:42;;;;;;;493.57;460.73;;;7.70;33.60;;;;;;5051163;28;20462;-70
2022/11/29 03:34:14;;;;;;;264.63;247.13;;;7.80;33.60;;;;;;5051541;28;20428;-69
2022/11/29 03:36:57;;;;;;;557.90;519.73;;;7.80;33.50;;;;;;5051234;28;20415;-70
2022/11/29 03:39:35;;;;;;;359.07;338.33;;;7.70;33.50;;;;;;5033512;28;20430;-71
2022/11/29 03:42:11;;;;;;;476.20;444.13;;;7.80;33.00;;;;;;5051606;28;20432;-70
2022/11/29 03:45:02;;;;;;;529.23;495.93;;;7.80;32.90;;;;;;5051474;28;20750;-70
2022/11/29 03:47:35;;;;;;;510.40;479.77;;;7.70;32.90;;;;;;5033622;28;20424;-70
2022/11/29 03:50:05;;;;;;;479.93;446.70;;;7.70;33.50;;;;;;5051379;28;20412;-70
2022/11/29 03:52:47;;;;;;;525.00;492.83;;;7.70;33.10;;;;;;5050897;28;20507;-70
2022/11/29 03:55:31;;;;;;;624.60;577.67;;;7.80;33.20;;;;;;5051329;28;20409;-70
2022/11/29 03:58:23;;;;;;;512.70;479.57;;;7.70;31.30;;;;;;5051341;28;21029;-70
2022/11/29 04:01:00;;;;;;;507.77;474.97;;;7.60;32.70;;;;;;5051467;28;20430;-71
2022/11/29 04:03:41;;;;;;;322.07;299.63;;;7.70;32.80;;;;;;5051025;28;20476;-71
2022/11/29 04:06:21;;;;;;;329.20;305.27;;;7.70;31.30;;;;;;5055010;28;20411;-71
2022/11/29 04:09:24;;;;;;;532.80;496.30;;;7.70;31.90;;;;;;5055040;28;20410;-71
2022/11/29 04:12:25;;;;;;;460.23;431.40;;;7.80;32.00;;;;;;5054472;28;20548;-71
2022/11/29 04:15:13;;;;;;;461.80;432.57;;;7.70;32.50;;;;;;5054853;28;20416;-71
2022/11/29 04:18:00;;;;;;;516.47;481.67;;;7.80;32.20;;;;;;5054789;28;20415;-71
2022/11/29 04:20:47;;;;;;;460.40;431.83;;;7.70;31.80;;;;;;5054761;28;20404;-71
2022/11/29 04:23:31;;;;;;;512.33;481.13;;;7.70;31.90;;;;;;5054485;28;20474;-70
2022/11/29 04:26:15;;;;;;;432.30;404.53;;;7.70;32.30;;;;;;5054611;28;20403;-70
2022/11/29 04:28:49;;;;;;;353.63;326.77;;;7.70;31.10;;;;;;5054630;28;20399;-70
2022/11/29 04:31:40;;;;;;;198.40;184.40;;;7.70;31.20;;;;;;5054400;28;20814;-70
2022/11/29 04:34:20;;;;;;;390.13;366.40;;;7.80;31.50;;;;;;5054506;28;20408;-71
2022/11/29 04:37:21;;;;;;;769.47;709.40;;;7.80;31.10;;;;;;5054412;28;20411;-70
2022/11/29 04:40:02;;;;;;;559.63;523.57;;;7.90;31.30;;;;;;5036531;28;20419;-71
2022/11/29 04:42:52;;;;;;;317.60;295.70;;;7.80;30.70;;;;;;5036080;28;20451;-70
2022/11/29 04:45:27;;;;;;;464.50;435.60;;;7.90;30.20;;;;;;5054261;28;20780;-71
2022/11/29 04:48:21;;;;;;;611.00;567.07;;;7.90;30.40;;;;;;5036287;28;20434;-70
2022/11/29 04:51:12;;;;;;;456.40;425.23;;;7.90;30.20;;;;;;5054077;28;20412;-71
2022/11/29 04:53:41;;;;;;;190.00;176.37;;;7.80;30.00;;;;;;5044688;28;20845;-70
2022/11/29 04:56:41;;;;;;;597.27;554.80;;;7.60;31.20;;;;;;5054113;28;20891;-71
2022/11/29 04:59:07;;;;;;;442.37;413.90;;;7.50;32.00;;;;;;5054071;28;20931;-70
2022/11/29 05:01:41;;;;;;;489.90;458.57;;;7.50;32.60;;;;;;5053555;28;20490;-71
2022/11/29 05:04:28;;;;;;;637.37;591.17;;;7.60;32.30;;;;;;5054002;28;20527;-71
2022/11/29 05:07:09;;;;;;;474.33;445.70;;;7.70;32.00;;;;;;5053828;28;20495;-71
2022/11/29 05:10:01;;;;;;;482.40;451.70;;;7.70;31.60;;;;;;5035953;28;20493;-71
2022/11/29 05:12:43;;;;;;;425.17;396.07;;;7.80;31.00;;;;;;5035508;28;20492;-71
2022/11/29 05:15:35;;;;;;;270.40;251.57;;;7.90;30.50;;;;;;5053625;28;20405;-71
2022/11/29 05:18:51;;;;;;;701.37;649.00;;;7.90;30.20;;;;;;5035649;28;20428;-70
2022/11/29 05:21:36;;;;;;;456.80;426.93;;;7.80;30.10;;;;;;4972371;28;20463;-70
2022/11/29 05:24:17;;;;;;;441.30;414.93;;;7.80;31.30;;;;;;5029567;28;20944;-71
2022/11/29 05:26:58;;;;;;;395.53;369.97;;;7.80;30.50;;;;;;5053210;28;20770;-71
2022/11/29 05:29:34;;;;;;;479.53;449.87;;;7.90;30.20;;;;;;5053413;28;20407;-70
2022/11/29 05:32:29;;;;;;;451.43;422.47;;;7.90;30.20;;;;;;5035126;28;20465;-71
2022/11/29 05:35:12;;;;;;;475.50;445.47;;;7.90;30.20;;;;;;5053170;28;20437;-70
2022/11/29 05:37:47;;;;;;;477.70;447.20;;;7.90;30.20;;;;;;5053141;28;20438;-70
2022/11/29 05:40:41;;;;;;;476.30;446.33;;;8.00;30.30;;;;;;5053331;28;20505;-70
2022/11/29 05:43:26;;;;;;;565.40;525.60;;;8.00;30.30;;;;;;5034943;28;20487;-69
2022/11/29 05:46:06;;;;;;;702.40;648.83;;;8.00;30.30;;;;;;5053768;28;20883;-70
2022/11/29 05:48:44;;;;;;;512.30;477.67;;;7.90;30.20;;;;;;5035189;28;20514;-70
2022/11/29 05:51:29;;;;;;;426.57;397.90;;;7.90;30.70;;;;;;5052882;28;20580;-70
2022/11/29 05:54:24;;;;;;;432.10;402.90;;;7.90;30.90;;;;;;5052989;28;20446;-70
2022/11/29 05:57:08;;;;;;;407.80;378.97;;;7.90;30.20;;;;;;5039464;28;20430;-70
2022/11/29 05:59:37;;;;;;;463.80;434.80;;;7.90;30.20;;;;;;5052797;28;20404;-70
2022/11/29 06:02:24;;;;;;;460.50;427.77;;;7.90;30.20;;;;;;5052488;28;20448;-70
2022/11/29 06:05:06;;;;;;;725.20;668.97;;;7.90;30.20;;;;;;5052587;28;20944;-70
2022/11/29 06:08:00;;;;;;;553.10;512.03;;;7.90;30.20;;;;;;5052658;28;20415;-69
2022/11/29 06:10:31;;;;;;;586.77;545.43;;;7.90;30.80;;;;;;5053035;28;20759;-70
2022/11/29 06:13:20;;;;;;;620.77;577.47;;;7.80;30.70;;;;;;5053744;28;20832;-71
2022/11/29 06:16:21;;;;;;;606.97;563.47;;;7.80;31.00;;;;;;5055780;28;20490;-71
2022/11/29 06:19:23;;;;;;;470.43;440.27;;;7.80;31.60;;;;;;5022972;28;20759;-72
2022/11/29 06:22:32;;;;;;;460.10;430.53;;;7.80;31.80;;;;;;5037338;28;20946;-72
2022/11/29 06:25:31;;;;;;;491.20;457.93;;;7.80;31.60;;;;;;5052129;28;20422;-71
2022/11/29 06:28:06;;;;;;;668.43;618.33;;;7.80;31.60;;;;;;5033632;28;20814;-70
2022/11/29 06:30:55;;;;;;;482.57;453.10;;;7.70;31.80;;;;;;5034483;28;20520;-70
2022/11/29 06:33:26;;;;;;;617.97;575.40;;;7.70;32.40;;;;;;5005368;28;20595;-70
2022/11/29 06:36:10;;;;;;;360.33;337.60;;;7.80;32.30;;;;;;5052263;28;20423;-71
2022/11/29 06:38:35;;;;;;;491.10;459.50;;;7.80;31.80;;;;;;5051958;28;20448;-71
2022/11/29 06:41:01;;;;;;;500.43;466.50;;;7.80;31.80;;;;;;5051931;28;20815;-71
2022/11/29 06:43:27;;;;;;;316.87;297.77;;;7.80;31.80;;;;;;5051705;28;20178;-70
2022/11/29 06:46:32;;;;;;;497.67;464.17;;;7.80;32.00;;;;;;5051991;28;20261;-71
2022/11/29 06:49:10;;;;;;;498.47;462.67;;;7.80;31.50;;;;;;5014236;28;20873;-71
2022/11/29 06:51:55;;;;;;;489.80;454.17;;;7.60;31.30;;;;;;5033728;28;20474;-71
2022/11/29 06:54:26;;;;;;;458.83;430.07;;;7.50;32.50;;;;;;5051930;28;20437;-70
2022/11/29 06:57:25;;;;;;;472.37;441.20;;;7.50;32.90;;;;;;5052420;28;20407;-70
2022/11/29 07:00:16;;;;;;;483.33;452.57;;;7.70;32.30;;;;;;5052397;28;20897;-70
2022/11/29 07:02:57;;;;;;;500.53;468.53;;;7.70;32.40;;;;;;5051348;28;20532;-70
2022/11/29 07:05:33;;;;;;;443.37;412.70;;;7.70;31.90;;;;;;5052091;28;20734;-71
2022/11/29 07:08:05;;;;;;;289.67;270.03;;;7.70;31.70;;;;;;5051872;28;20529;-70
2022/11/29 07:10:34;;;;;;;524.53;489.80;;;7.70;30.60;;;;;;5051692;28;20470;-70
2022/11/29 07:13:00;;;;;;;515.50;482.97;;;7.60;32.00;;;;;;5051204;28;20519;-71
2022/11/29 07:15:27;;;;;;;475.23;446.60;;;7.70;31.40;;;;;;5051597;28;20421;-70
2022/11/29 07:18:07;;;;;;;456.37;424.17;;;7.70;31.50;;;;;;5033720;28;20429;-71
2022/11/29 07:21:05;;;;;;;368.10;343.33;;;7.70;30.00;;;;;;5051655;28;20410;-70
2022/11/29 07:23:35;;;;;;;413.30;386.93;;;7.60;31.10;;;;;;5046213;28;20426;-70
2022/11/29 07:26:25;;;;;;;584.17;538.57;;;7.70;30.80;;;;;;5051877;28;20409;-76
2022/11/29 07:29:20;;;;;;;209.60;195.30;;;7.70;31.80;;;;;;5051484;28;20502;-71
2022/11/29 07:32:04;;;;;;;347.07;320.40;;;7.70;31.80;;;;;;5046021;28;20571;-71
2022/11/29 07:35:20;;;;;;;417.30;386.33;;;7.70;32.40;;;;;;5051416;28;20547;-71
2022/11/29 07:38:00;;;;;;;406.80;381.73;;;7.70;32.30;;;;;;5009201;28;20474;-70
2022/11/29 07:40:42;;;;;;;495.23;462.23;;;7.70;32.60;;;;;;5051816;28;20410;-70
2022/11/29 07:43:26;;;;;;;425.67;399.57;;;7.70;34.10;;;;;;5037156;28;20887;-70
2022/11/29 07:45:53;;;;;;;316.53;292.87;;;7.60;34.30;;;;;;5055165;28;20411;-70
2022/11/29 07:48:18;;;;;;;450.67;423.07;;;7.70;34.00;;;;;;5054914;28;20419;-70
2022/11/29 07:50:44;;;;;;;457.53;428.53;;;7.70;34.10;;;;;;5055075;28;20422;-69
2022/11/29 07:53:18;;;;;;;242.93;225.63;;;7.70;34.10;;;;;;5054976;28;20205;-69
2022/11/29 07:55:44;;;;;;;479.70;450.43;;;7.70;33.30;;;;;;5055148;28;20180;-69
2022/11/29 07:58:13;;;;;;;248.07;229.63;;;7.70;34.00;;;;;;5054909;28;20414;-70
2022/11/29 08:00:43;;;;;;;380.37;356.60;;;7.80;33.40;;;;;;5054725;28;20441;-69
2022/11/29 08:03:09;;;;;;;517.03;481.17;;;7.90;32.80;;;;;;5055159;28;20462;-70
2022/11/29 08:05:39;;;;;;;393.80;371.50;;;7.80;33.40;;;;;;5055222;28;20787;-70
2022/11/29 08:08:05;;;;;;;460.73;428.37;;;7.70;33.10;;;;;;5054914;28;20910;-70
2022/11/29 08:10:30;;;;;;;457.43;430.07;;;7.60;34.20;;;;;;5054834;28;20461;-69
2022/11/29 08:12:56;;;;;;;382.03;354.57;;;7.70;34.90;;;;;;5053809;28;20470;-70
2022/11/29 08:15:23;;;;;;;497.13;466.73;;;7.80;34.00;;;;;;5050980;28;20550;-69
2022/11/29 08:17:49;;;;;;;525.10;489.63;;;7.80;34.00;;;;;;5058806;28;20178;-69
2022/11/29 08:20:16;;;;;;;522.87;488.17;;;7.90;33.40;;;;;;5047108;28;20447;-70
2022/11/29 08:22:42;;;;;;;560.10;520.30;;;7.90;33.50;;;;;;5053645;28;21022;-69
2022/11/29 08:25:09;;;;;;;221.30;203.87;;;7.80;33.00;;;;;;5054863;28;20424;-71
2022/11/29 08:27:37;;;;;;;667.80;614.73;;;7.90;33.80;;;;;;5054648;28;20782;-71
2022/11/29 08:30:06;;;;;;;442.90;409.13;;;7.90;32.50;;;;;;5050762;28;20451;-70
2022/11/29 08:32:33;;;;;;;446.60;417.57;;;7.80;32.60;;;;;;5057098;28;20476;-72
2022/11/29 08:34:59;;;;;;;507.33;473.00;;;7.60;34.50;;;;;;5059589;28;20428;-71
2022/11/29 08:37:24;;;;;;;284.23;264.57;;;7.60;34.60;;;;;;5038735;28;20448;-71
2022/11/29 08:39:50;;;;;;;484.87;452.00;;;7.50;35.30;;;;;;5054606;28;20174;-73
2022/11/29 08:42:15;;;;;;;320.87;298.33;;;7.60;35.40;;;;;;5053922;28;20274;-70
2022/11/29 08:44:41;;;;;;;449.07;418.77;;;7.60;35.10;;;;;;5053801;28;20189;-71
2022/11/29 08:50:02;;;;;;;346.70;322.93;;;7.40;36.50;;;;;;5038268;28;20200;-70
2022/11/29 08:55:19;;;;;;;414.80;383.00;;;7.60;36.20;;;;;;5056591;28;20419;-71
2022/11/29 08:57:45;;;;;;;450.13;421.57;;;7.50;35.90;;;;;;5054054;28;20415;-71
2022/11/29 09:00:12;;;;;;;244.87;227.60;;;7.60;35.20;;;;;;5053963;28;20911;-71
2022/11/29 09:02:38;;;;;;;378.93;355.37;;;7.70;35.80;;;;;;5053754;28;20452;-71
2022/11/29 09:05:04;;;;;;;594.97;553.80;;;7.80;35.30;;;;;;5055976;28;20437;-71
2022/11/29 09:07:30;;;;;;;448.63;419.27;;;7.90;35.10;;;;;;5053579;28;20197;-72
2022/11/29 09:09:56;;;;;;;467.60;438.30;;;7.80;34.40;;;;;;5035703;28;20429;-70
2022/11/29 09:12:21;;;;;;;473.53;444.57;;;7.80;35.30;;;;;;5053174;28;20240;-70
2022/11/29 09:14:47;;;;;;;457.17;425.00;;;7.80;35.30;;;;;;5072443;28;20212;-70
2022/11/29 09:17:12;;;;;;;702.53;650.60;;;7.90;34.70;;;;;;5071819;28;20220;-70
2022/11/29 09:19:38;;;;;;;531.60;493.90;;;7.90;34.30;;;;;;5063956;28;23185;-70
2022/11/29 09:22:03;;;;;;;505.27;469.77;;;7.80;33.90;;;;;;5054444;28;20225;-70
2022/11/29 09:24:29;;;;;;;338.00;317.53;;;7.80;34.90;;;;;;5049856;28;20198;-70
2022/11/29 09:26:54;;;;;;;343.80;317.17;;;7.80;34.80;;;;;;5033424;28;20667;-70
2022/11/29 09:29:20;;;;;;;318.40;297.13;;;7.80;34.00;;;;;;5067873;28;20628;-69
2022/11/29 09:31:45;;;;;;;412.67;384.77;;;7.70;35.50;;;;;;5072603;28;20234;-70
2022/11/29 09:34:13;;;;;;;291.90;274.00;;;7.70;35.30;;;;;;5054484;28;20261;-69
2022/11/29 09:36:39;;;;;;;587.17;545.30;;;7.70;35.40;;;;;;5053036;28;20213;-70
2022/11/29 09:39:04;;;;;;;289.77;272.77;;;7.80;35.30;;;;;;5053006;28;20438;-70
2022/11/29 09:41:54;;;;;;;474.67;439.30;;;7.80;35.90;;;;;;5052886;28;20433;-69
2022/11/29 09:44:38;;;;;;;497.13;464.77;;;7.90;35.00;;;;;;5052945;28;20242;-70
2022/11/29 09:47:40;;;;;;;233.20;215.40;;;8.00;35.30;;;;;;5052874;28;20424;-70
2022/11/29 09:50:24;;;;;;;498.47;468.20;;;8.10;34.30;;;;;;5055819;28;20471;-70
2022/11/29 09:53:02;;;;;;;428.23;398.03;;;8.20;34.20;;;;;;5072280;28;20459;-70
2022/11/29 09:56:06;;;;;;;435.07;407.93;;;8.30;33.20;;;;;;5072603;28;20418;-70
2022/11/29 09:58:42;;;;;;;513.77;482.37;;;8.40;32.80;;;;;;4990906;28;20430;-70
2022/11/29 10:01:16;;;;;;;250.47;233.87;;;8.20;32.90;;;;;;5061483;28;20431;-70
2022/11/29 10:03:45;;;;;;;420.20;392.90;;;8.30;32.70;;;;;;5052421;28;20482;-70
2022/11/29 10:06:25;;;;;;;498.70;468.80;;;8.30;32.30;;;;;;5059194;28;20427;-70
2022/11/29 10:09:39;;;;;;;739.73;683.70;;;8.40;31.10;;;;;;5072529;28;20745;-70
2022/11/29 10:12:10;;;;;;;473.17;445.07;;;8.50;31.20;;;;;;4990405;28;20514;-70
2022/11/29 10:14:41;;;;;;;310.87;288.63;;;8.50;30.60;;;;;;5065255;28;20446;-70
2022/11/29 10:17:30;;;;;;;300.30;278.73;;;8.20;31.50;;;;;;5054544;28;20480;-70
2022/11/29 10:20:17;;;;;;;531.53;494.47;;;8.20;32.70;;;;;;5072423;28;20416;-70
2022/11/29 10:23:02;;;;;;;375.87;351.77;;;8.10;32.20;;;;;;5071602;28;20825;-70
2022/11/29 10:25:34;;;;;;;475.37;445.57;;;8.10;32.80;;;;;;5049057;28;20433;-70
2022/11/29 10:28:02;;;;;;;340.53;320.03;;;8.00;33.50;;;;;;5032228;28;20447;-70
2022/11/29 10:30:28;;;;;;;446.33;417.27;;;8.10;33.70;;;;;;5032345;28;20441;-70
2022/11/29 10:32:56;;;;;;;492.50;462.40;;;7.90;34.20;;;;;;5036709;28;20468;-70
2022/11/29 10:35:23;;;;;;;537.33;500.53;;;8.00;34.80;;;;;;5052186;28;20421;-70
2022/11/29 10:37:52;;;;;;;480.07;449.40;;;8.00;35.00;;;;;;5064892;28;20514;-70
2022/11/29 10:40:24;;;;;;;620.03;573.60;;;8.20;34.20;;;;;;5072035;28;20424;-70
2022/11/29 10:42:53;;;;;;;666.90;614.83;;;8.20;33.30;;;;;;5059228;28;20892;-70
2022/11/29 10:45:28;;;;;;;312.20;291.37;;;8.20;33.10;;;;;;5034053;28;20970;-70
2022/11/29 10:47:59;;;;;;;449.07;416.43;;;8.10;33.30;;;;;;5051869;28;20532;-70
2022/11/29 10:50:28;;;;;;;403.97;378.90;;;8.00;33.50;;;;;;5051906;28;20424;-70
2022/11/29 10:53:08;;;;;;;531.57;494.17;;;7.80;34.80;;;;;;5067595;28;20465;-70
2022/11/29 10:55:40;;;;;;;688.37;635.43;;;7.80;35.60;;;;;;5068166;28;20500;-70
2022/11/29 10:58:12;;;;;;;445.07;411.77;;;8.00;35.50;;;;;;5051312;28;20761;-70
2022/11/29 11:01:00;;;;;;;453.23;425.73;;;8.00;35.30;;;;;;5051940;28;20413;-70
2022/11/29 11:03:31;;;;;;;210.20;195.60;;;8.10;35.60;;;;;;5033672;28;20955;-70
2022/11/29 11:06:00;;;;;;;418.37;391.90;;;8.10;34.30;;;;;;5054272;28;20427;-70
2022/11/29 11:08:27;;;;;;;735.07;678.17;;;8.10;34.20;;;;;;5062633;28;20431;-70
2022/11/29 11:10:54;;;;;;;440.70;412.20;;;8.10;34.30;;;;;;5035411;28;20415;-70
2022/11/29 11:13:26;;;;;;;427.33;396.13;;;8.10;33.50;;;;;;5050460;28;20473;-71
2022/11/29 11:16:06;;;;;;;474.43;443.27;;;8.10;34.30;;;;;;5054411;28;20460;-70
2022/11/29 11:18:32;;;;;;;497.13;465.97;;;8.10;34.60;;;;;;5071508;28;20761;-70
2022/11/29 11:21:01;;;;;;;321.47;295.53;;;8.20;33.90;;;;;;5071380;28;20426;-70
2022/11/29 11:23:33;;;;;;;235.73;219.53;;;8.20;33.60;;;;;;5069498;28;20208;-70
2022/11/29 11:26:05;;;;;;;531.97;493.07;;;8.20;33.40;;;;;;5051530;28;20431;-70
2022/11/29 11:28:45;;;;;;;456.80;428.47;;;8.10;34.40;;;;;;5013004;28;20425;-70
2022/11/29 11:31:12;;;;;;;556.73;515.73;;;8.10;34.80;;;;;;5022250;28;20437;-70
2022/11/29 11:33:41;;;;;;;521.53;483.53;;;8.20;35.00;;;;;;5055513;28;20428;-70
2022/11/29 11:36:18;;;;;;;650.67;603.70;;;8.10;34.80;;;;;;5035155;28;20985;-70
2022/11/29 11:38:49;;;;;;;512.30;478.70;;;7.90;35.40;;;;;;5031638;28;20421;-70
2022/11/29 11:41:20;;;;;;;603.00;557.37;;;7.90;36.00;;;;;;5031103;28;20415;-70
2022/11/29 11:43:58;;;;;;;513.23;476.93;;;7.90;36.80;;;;;;5031258;28;20417;-70
2022/11/29 11:46:47;;;;;;;424.73;391.03;;;8.00;36.10;;;;;;5041168;28;20427;-70
2022/11/29 11:49:23;;;;;;;442.97;414.97;;;7.90;36.40;;;;;;5051390;28;20410;-70
2022/11/29 11:51:49;;;;;;;501.33;469.20;;;8.00;36.80;;;;;;5050832;28;20458;-70
2022/11/29 11:54:15;;;;;;;474.40;443.07;;;8.00;37.50;;;;;;5051219;28;20907;-70
2022/11/29 11:56:41;;;;;;;666.43;616.13;;;8.10;37.70;;;;;;5062527;28;20423;-70
2022/11/29 11:59:17;;;;;;;433.40;401.37;;;8.20;35.70;;;;;;5071464;28;20475;-71
2022/11/29 12:01:43;;;;;;;664.40;611.87;;;8.20;36.00;;;;;;5052743;28;20465;-71
2022/11/29 12:04:18;;;;;;;303.57;285.73;;;8.20;36.50;;;;;;5047391;28;20931;-70
2022/11/29 12:06:53;;;;;;;379.40;352.87;;;8.40;35.30;;;;;;5054906;28;20647;-70
2022/11/29 12:09:51;;;;;;;501.50;470.07;;;8.40;34.40;;;;;;5071365;28;20399;-73
2022/11/29 12:12:24;;;;;;;537.17;502.40;;;8.40;34.90;;;;;;5050011;28;20503;-73
2022/11/29 12:15:02;;;;;;;259.87;243.83;;;8.40;34.90;;;;;;5051087;28;20838;-72
2022/11/29 12:17:38;;;;;;;575.60;533.77;;;8.30;35.10;;;;;;5059122;28;20862;-73
2022/11/29 12:20:45;;;;;;;276.33;257.37;;;8.30;34.90;;;;;;5057037;28;20433;-73
2022/11/29 12:23:10;;;;;;;445.07;416.07;;;8.10;35.60;;;;;;5050837;28;20993;-73
2022/11/29 12:25:49;;;;;;;393.03;366.97;;;8.00;38.60;;;;;;5051545;28;20500;-73
2022/11/29 12:28:17;;;;;;;398.87;374.10;;;8.00;38.60;;;;;;5054854;28;20177;-72
2022/11/29 12:31:19;;;;;;;521.47;486.43;;;8.00;38.80;;;;;;5055137;28;20447;-73
2022/11/29 12:34:00;;;;;;;427.47;392.60;;;8.00;38.60;;;;;;5054172;28;20419;-73
2022/11/29 12:36:47;;;;;;;405.00;377.00;;;8.10;38.10;;;;;;5054360;28;20420;-73
2022/11/29 12:39:34;;;;;;;438.97;408.07;;;8.10;37.80;;;;;;5054443;28;20407;-73
2022/11/29 12:42:09;;;;;;;434.83;404.97;;;8.10;38.60;;;;;;5054017;28;20460;-73
2022/11/29 12:45:04;;;;;;;573.77;529.90;;;7.90;40.50;;;;;;5054667;28;20416;-73
2022/11/29 12:47:44;;;;;;;619.27;572.63;;;7.90;40.50;;;;;;5054545;28;20402;-72
2022/11/29 12:50:19;;;;;;;443.10;410.53;;;7.90;40.50;;;;;;5054430;28;20412;-72
2022/11/29 12:53:00;;;;;;;452.53;416.70;;;7.90;40.80;;;;;;5054020;28;20480;-72
2022/11/29 12:55:42;;;;;;;553.83;514.90;;;8.00;38.80;;;;;;5053919;28;20779;-73
2022/11/29 12:58:37;;;;;;;558.80;515.20;;;8.00;39.70;;;;;;5054073;28;20411;-71
2022/11/29 13:01:30;;;;;;;642.80;594.67;;;8.00;39.40;;;;;;5054366;28;20488;-70
2022/11/29 13:04:01;;;;;;;362.73;341.03;;;8.00;40.10;;;;;;5062599;28;20435;-70
2022/11/29 13:06:40;;;;;;;489.57;456.70;;;8.10;40.70;;;;;;5040359;28;20786;-70
2022/11/29 13:09:33;;;;;;;518.27;480.27;;;8.10;39.00;;;;;;5071977;28;20435;-70